Time;durP1;ratioP1;P1;durP2;ratioP2;P2;SDS_P1;SDS_P2;PMS_P1;PMS_P2;Temp;Humidity;BMP_temperature;BMP_pressure;BME280_temperature;BME280_humidity;BME280_pressure;Samples;Min_cycle;Max_cycle;Signal;HPM_P1;HPM_P2
2022/12/20 00:02:07;;;;;;;10.27;5.60;;;10.30;99.90;;;;;;4990319;28;20039;-67
2022/12/20 00:04:33;;;;;;;8.23;5.63;;;10.30;99.90;;;;;;4987277;28;20034;-66
2022/12/20 00:06:58;;;;;;;8.35;5.05;;;10.20;99.90;;;;;;4990138;28;20038;-66
2022/12/20 00:09:24;;;;;;;7.15;4.93;;;10.10;99.90;;;;;;4987785;28;20117;-66
2022/12/20 00:11:50;;;;;;;8.60;5.40;;;10.10;99.90;;;;;;4988805;28;20117;-66
2022/12/20 00:14:16;;;;;;;8.73;5.60;;;10.10;99.90;;;;;;4990336;28;20038;-66
2022/12/20 00:16:42;;;;;;;8.95;5.57;;;10.20;99.90;;;;;;4992133;28;20042;-66
2022/12/20 00:19:09;;;;;;;7.43;5.43;;;10.20;99.90;;;;;;4971958;28;20123;-66
2022/12/20 00:21:35;;;;;;;11.23;5.80;;;10.10;99.90;;;;;;4992844;28;20137;-66
2022/12/20 00:24:00;;;;;;;8.95;5.85;;;10.10;99.90;;;;;;4993556;28;20467;-66
2022/12/20 00:26:29;;;;;;;7.40;5.45;;;10.20;99.90;;;;;;4990600;28;20034;-66
2022/12/20 00:28:56;;;;;;;9.10;5.35;;;10.20;99.90;;;;;;4993192;28;20026;-66
2022/12/20 00:31:23;;;;;;;9.88;5.35;;;10.20;99.90;;;;;;4993376;28;20401;-66
2022/12/20 00:33:51;;;;;;;9.50;5.65;;;10.20;99.90;;;;;;4993811;28;20088;-67
2022/12/20 00:36:17;;;;;;;9.10;5.78;;;10.20;99.90;;;;;;4990623;28;20046;-65
2022/12/20 00:38:47;;;;;;;8.38;5.57;;;10.20;99.90;;;;;;4992987;28;20035;-67
2022/12/20 00:41:16;;;;;;;8.38;5.68;;;10.20;99.90;;;;;;4975901;28;20520;-66
2022/12/20 00:43:42;;;;;;;7.95;5.22;;;10.20;99.90;;;;;;4990521;28;20448;-67
2022/12/20 00:46:09;;;;;;;9.73;5.50;;;10.10;99.90;;;;;;4992914;28;20046;-65
2022/12/20 00:48:35;;;;;;;8.95;5.85;;;10.10;99.90;;;;;;4993460;28;20038;-65
2022/12/20 00:51:04;;;;;;;10.05;5.85;;;10.00;99.90;;;;;;4990197;28;20057;-65
2022/12/20 00:53:30;;;;;;;9.63;5.72;;;10.00;99.90;;;;;;4992927;28;20041;-66
2022/12/20 00:55:56;;;;;;;8.85;5.72;;;9.90;99.90;;;;;;4993395;28;20073;-66
2022/12/20 00:58:22;;;;;;;9.32;5.80;;;9.90;99.90;;;;;;4993361;28;20065;-66
2022/12/20 01:00:48;;;;;;;10.85;6.13;;;9.80;99.90;;;;;;4987884;28;20109;-66
2022/12/20 01:03:14;;;;;;;8.40;5.68;;;9.70;99.90;;;;;;4992267;28;20050;-65
2022/12/20 01:05:39;;;;;;;10.85;6.07;;;9.70;99.90;;;;;;4993929;28;20097;-66
2022/12/20 01:08:05;;;;;;;9.73;6.20;;;9.60;99.90;;;;;;4994351;28;20496;-67
2022/12/20 01:10:31;;;;;;;9.88;6.55;;;9.70;99.90;;;;;;4990862;28;20077;-66
2022/12/20 01:12:57;;;;;;;9.13;6.05;;;9.60;99.90;;;;;;4975611;28;20078;-66
2022/12/20 01:15:22;;;;;;;7.10;5.35;;;9.60;99.90;;;;;;4993746;28;20034;-66
2022/12/20 01:17:48;;;;;;;9.88;6.35;;;9.60;99.90;;;;;;4990446;28;20042;-66
2022/12/20 01:20:14;;;;;;;9.30;6.32;;;9.60;99.90;;;;;;4993034;28;20077;-66
2022/12/20 01:22:40;;;;;;;9.20;6.07;;;9.70;99.90;;;;;;4993448;28;20567;-67
2022/12/20 01:25:06;;;;;;;8.57;5.82;;;9.60;99.90;;;;;;4991137;28;20125;-66
2022/12/20 01:27:32;;;;;;;10.80;6.35;;;9.70;99.90;;;;;;4992741;28;20038;-66
2022/12/20 01:29:57;;;;;;;8.20;5.90;;;9.70;99.90;;;;;;4993470;28;20117;-66
2022/12/20 01:32:23;;;;;;;8.57;5.78;;;9.70;99.90;;;;;;4991851;28;20107;-66
2022/12/20 01:34:49;;;;;;;9.10;6.05;;;9.70;99.90;;;;;;4972306;28;20074;-66
2022/12/20 01:37:15;;;;;;;8.23;4.97;;;9.70;99.90;;;;;;4975685;28;20038;-66
2022/12/20 01:39:40;;;;;;;9.70;5.80;;;9.70;99.90;;;;;;4993500;28;20054;-67
2022/12/20 01:42:12;;;;;;;12.30;6.10;;;9.70;99.90;;;;;;4991024;28;20545;-66
2022/12/20 01:44:40;;;;;;;9.35;6.10;;;9.70;99.90;;;;;;4992208;28;20042;-65
2022/12/20 01:47:06;;;;;;;9.65;6.20;;;9.70;99.90;;;;;;4992706;28;20175;-65
2022/12/20 01:49:44;;;;;;;7.68;5.25;;;9.60;99.90;;;;;;4991010;28;20493;-66
2022/12/20 01:52:28;;;;;;;6.88;5.07;;;9.60;99.90;;;;;;4991017;28;20038;-66
2022/12/20 01:55:21;;;;;;;7.72;5.13;;;9.70;99.90;;;;;;4993075;28;20038;-66
2022/12/20 01:57:54;;;;;;;10.50;5.00;;;9.70;99.90;;;;;;4991754;28;20057;-65
2022/12/20 02:00:20;;;;;;;8.77;5.90;;;9.60;99.90;;;;;;4986869;28;20033;-66
2022/12/20 02:02:47;;;;;;;7.57;5.13;;;9.70;99.90;;;;;;4994227;28;20048;-66
2022/12/20 02:05:15;;;;;;;9.32;5.88;;;9.80;99.90;;;;;;5012894;28;20049;-66
2022/12/20 02:07:44;;;;;;;8.93;5.28;;;9.80;99.90;;;;;;5009564;28;20045;-65
2022/12/20 02:10:11;;;;;;;8.77;5.60;;;9.80;99.90;;;;;;5011783;28;20054;-66
2022/12/20 02:12:39;;;;;;;7.30;5.22;;;9.90;99.90;;;;;;5012433;28;20049;-66
2022/12/20 02:15:43;;;;;;;7.60;5.18;;;9.90;99.90;;;;;;5002510;28;20397;-66
2022/12/20 02:18:26;;;;;;;9.10;4.90;;;10.00;99.90;;;;;;5009446;28;20127;-66
2022/12/20 02:21:13;;;;;;;9.50;5.35;;;10.00;99.90;;;;;;5011832;28;20038;-65
2022/12/20 02:24:13;;;;;;;7.60;5.10;;;10.10;99.90;;;;;;5009689;28;20037;-65
2022/12/20 02:27:20;;;;;;;6.15;4.43;;;10.20;99.90;;;;;;4952599;28;20082;-65
2022/12/20 02:30:10;;;;;;;6.95;4.82;;;10.20;99.90;;;;;;5012442;28;20057;-66
2022/12/20 02:32:45;;;;;;;7.57;4.43;;;10.20;99.90;;;;;;5009072;28;20038;-66
2022/12/20 02:35:13;;;;;;;6.40;4.40;;;10.30;99.90;;;;;;5011381;28;20053;-66
2022/12/20 02:37:57;;;;;;;8.35;4.65;;;10.40;99.90;;;;;;5011845;28;20033;-66
2022/12/20 02:40:27;;;;;;;8.50;4.47;;;10.50;99.90;;;;;;5008495;28;20041;-66
2022/12/20 02:42:58;;;;;;;9.50;4.40;;;10.50;99.90;;;;;;5011211;28;20053;-66
2022/12/20 02:45:32;;;;;;;;;;;10.50;99.90;;;;;;5012101;28;20045;-66
2022/12/20 02:48:09;;;;;;;9.48;4.53;;;10.50;99.90;;;;;;5009327;28;19988;-66
2022/12/20 02:50:45;;;;;;;11.25;4.50;;;10.50;99.90;;;;;;5011330;28;20040;-65
2022/12/20 02:53:12;;;;;;;6.18;4.50;;;10.60;99.90;;;;;;5011569;28;20138;-65
2022/12/20 02:55:45;;;;;;;7.07;5.00;;;10.60;99.90;;;;;;5011886;28;20583;-66
2022/12/20 02:58:22;;;;;;;6.45;4.57;;;10.60;99.90;;;;;;4986243;28;20082;-66
2022/12/20 03:00:49;;;;;;;7.57;4.45;;;10.60;99.90;;;;;;5010926;28;20033;-66
2022/12/20 03:03:21;;;;;;;7.35;4.63;;;10.50;99.90;;;;;;5011748;28;20052;-66
2022/12/20 03:05:49;;;;;;;6.93;4.35;;;10.50;99.90;;;;;;5009550;28;20112;-66
2022/12/20 03:08:15;;;;;;;7.28;4.65;;;10.50;99.90;;;;;;5010334;28;20041;-66
2022/12/20 03:10:41;;;;;;;8.10;4.80;;;10.50;99.90;;;;;;5011609;28;20034;-66
2022/12/20 03:13:06;;;;;;;6.65;4.95;;;10.40;99.90;;;;;;5010856;28;20045;-65
2022/12/20 03:15:32;;;;;;;7.43;5.13;;;10.30;99.90;;;;;;5006776;28;20046;-66
2022/12/20 03:17:58;;;;;;;7.78;5.57;;;10.30;99.90;;;;;;5011049;28;20038;-66
2022/12/20 03:20:23;;;;;;;8.63;4.93;;;10.30;99.90;;;;;;5011370;28;20038;-67
2022/12/20 03:22:49;;;;;;;7.03;4.82;;;10.30;99.90;;;;;;5011318;28;20205;-67
2022/12/20 03:25:15;;;;;;;8.25;4.95;;;10.30;99.90;;;;;;5008394;28;20034;-66
2022/12/20 03:27:40;;;;;;;6.85;5.07;;;10.30;99.90;;;;;;5011078;28;20046;-66
2022/12/20 03:30:06;;;;;;;8.45;4.90;;;10.30;99.90;;;;;;5011287;28;20037;-66
2022/12/20 03:32:32;;;;;;;8.50;5.18;;;10.30;99.90;;;;;;5007739;28;20052;-65
2022/12/20 03:34:58;;;;;;;8.07;5.10;;;10.30;99.90;;;;;;5011000;28;20042;-67
2022/12/20 03:37:23;;;;;;;6.90;4.90;;;10.30;99.90;;;;;;5011159;28;20042;-66
2022/12/20 03:39:49;;;;;;;6.93;4.75;;;10.30;99.90;;;;;;5008540;28;20109;-66
2022/12/20 03:42:14;;;;;;;9.75;4.93;;;10.20;99.90;;;;;;5010577;28;20041;-66
2022/12/20 03:44:40;;;;;;;8.80;4.57;;;10.20;99.90;;;;;;5011523;28;20404;-66
2022/12/20 03:47:06;;;;;;;8.00;5.05;;;10.20;99.90;;;;;;5011669;28;20042;-67
2022/12/20 03:49:31;;;;;;;7.53;5.38;;;10.10;99.90;;;;;;5007902;28;20034;-67
2022/12/20 03:51:57;;;;;;;8.85;5.55;;;10.10;99.90;;;;;;5012534;28;20080;-67
2022/12/20 03:54:22;;;;;;;12.27;6.00;;;10.20;99.90;;;;;;5015204;28;20038;-66
2022/12/20 03:56:48;;;;;;;9.63;5.32;;;10.20;99.90;;;;;;5010217;28;20042;-65
2022/12/20 03:59:14;;;;;;;8.43;5.10;;;10.20;99.90;;;;;;5001652;28;20121;-66
2022/12/20 04:01:40;;;;;;;7.97;5.30;;;10.20;99.90;;;;;;4977693;28;20038;-65
2022/12/20 04:04:14;;;;;;;11.00;5.53;;;10.10;99.90;;;;;;4995623;28;20437;-66
2022/12/20 04:06:39;;;;;;;7.85;5.38;;;10.20;99.90;;;;;;4993381;28;20105;-66
2022/12/20 04:09:05;;;;;;;8.70;5.50;;;10.10;99.90;;;;;;4977747;28;20429;-66
2022/12/20 04:11:31;;;;;;;9.38;5.43;;;10.10;99.90;;;;;;4994998;28;20042;-66
2022/12/20 04:13:56;;;;;;;9.85;5.47;;;10.10;99.90;;;;;;4991409;28;20041;-65
2022/12/20 04:16:25;;;;;;;10.05;5.97;;;10.10;99.90;;;;;;4994832;28;20115;-66
2022/12/20 04:18:50;;;;;;;9.95;5.55;;;10.10;99.90;;;;;;4995116;28;20074;-66
2022/12/20 04:21:25;;;;;;;9.65;5.78;;;10.10;99.90;;;;;;4989017;28;20077;-66
2022/12/20 04:23:50;;;;;;;10.05;6.05;;;10.10;99.90;;;;;;4993915;28;20129;-66
2022/12/20 04:26:17;;;;;;;8.32;5.43;;;10.10;99.90;;;;;;4994601;28;20461;-66
2022/12/20 04:28:43;;;;;;;9.40;5.43;;;10.10;99.90;;;;;;4994821;28;20038;-66
2022/12/20 04:31:09;;;;;;;10.40;5.75;;;10.00;99.90;;;;;;4991736;28;20042;-66
2022/12/20 04:33:35;;;;;;;9.80;5.53;;;10.00;99.90;;;;;;4994039;28;20483;-66
2022/12/20 04:36:01;;;;;;;9.75;5.88;;;10.00;99.90;;;;;;4994486;28;20104;-65
2022/12/20 04:38:26;;;;;;;9.57;6.20;;;10.00;99.90;;;;;;4992199;28;20030;-65
2022/12/20 04:40:53;;;;;;;9.77;5.72;;;10.00;99.90;;;;;;4993524;28;20392;-66
2022/12/20 04:43:19;;;;;;;9.48;5.95;;;10.10;99.90;;;;;;4994376;28;20034;-66
2022/12/20 04:45:51;;;;;;;9.77;6.35;;;10.00;99.90;;;;;;4994560;28;20444;-65
2022/12/20 04:48:17;;;;;;;10.40;6.13;;;10.00;99.90;;;;;;4987429;28;20038;-64
2022/12/20 04:50:47;;;;;;;9.05;6.07;;;10.10;99.90;;;;;;4992025;28;20045;-64
2022/12/20 04:55:57;;;;;;;11.73;6.05;;;10.10;99.90;;;;;;4971712;28;20051;-68
2022/12/20 04:58:23;;;;;;;10.75;5.30;;;10.20;99.90;;;;;;5009938;22;20037;-66
2022/12/20 05:00:51;;;;;;;7.55;5.00;;;10.30;99.90;;;;;;5038570;28;20037;-66
2022/12/20 05:03:17;;;;;;;10.45;5.93;;;10.30;99.90;;;;;;5052893;28;20468;-66
2022/12/20 05:05:43;;;;;;;10.25;5.82;;;10.40;99.90;;;;;;5017795;28;20069;-65
2022/12/20 05:08:09;;;;;;;9.27;5.50;;;10.50;99.90;;;;;;5041759;28;20470;-66
2022/12/20 05:10:34;;;;;;;8.70;5.50;;;10.50;99.90;;;;;;5053083;28;20044;-66
2022/12/20 05:13:00;;;;;;;6.95;4.90;;;10.50;99.90;;;;;;5031273;28;20045;-65
2022/12/20 05:15:25;;;;;;;9.73;5.32;;;10.60;99.90;;;;;;5036333;28;20112;-65
2022/12/20 05:17:51;;;;;;;9.00;5.13;;;10.60;99.90;;;;;;5032225;28;20400;-66
2022/12/20 05:20:16;;;;;;;8.90;5.35;;;10.60;99.90;;;;;;5027393;28;20029;-65
2022/12/20 05:28:10;;;;;;;9.35;4.72;;;10.70;99.90;;;;;;5033238;28;20148;-65
2022/12/20 05:30:37;;;;;;;6.28;4.50;;;10.70;99.90;;;;;;5021739;28;20108;-65
2022/12/20 05:33:02;;;;;;;6.60;4.45;;;10.80;99.90;;;;;;5016545;28;20193;-65
2022/12/20 05:35:28;;;;;;;8.20;4.93;;;10.80;99.90;;;;;;5032049;28;20119;-66
2022/12/20 05:37:53;;;;;;;8.00;4.63;;;10.80;99.90;;;;;;5052568;28;20067;-66
2022/12/20 05:40:19;;;;;;;7.85;4.85;;;10.80;99.90;;;;;;5028367;28;20108;-65
2022/12/20 05:42:45;;;;;;;6.22;4.80;;;10.80;99.90;;;;;;5014579;28;20769;-65
2022/12/20 05:45:10;;;;;;;7.68;4.90;;;10.70;99.90;;;;;;5032760;28;20539;-65
2022/12/20 05:47:37;;;;;;;8.40;4.78;;;10.70;99.90;;;;;;5020126;28;20092;-66
2022/12/20 05:50:04;;;;;;;7.15;4.68;;;10.70;99.90;;;;;;5026349;28;20122;-65
2022/12/20 05:52:30;;;;;;;8.45;4.93;;;10.80;99.90;;;;;;5034913;28;20041;-65
2022/12/20 05:54:55;;;;;;;9.70;4.70;;;10.80;99.90;;;;;;5035479;28;20048;-65
2022/12/20 05:57:21;;;;;;;8.60;5.15;;;10.80;99.90;;;;;;5029033;28;20045;-65
2022/12/20 05:59:47;;;;;;;8.38;4.72;;;10.70;99.90;;;;;;5003581;28;20056;-65
2022/12/20 06:02:13;;;;;;;7.88;4.72;;;10.70;99.90;;;;;;5030575;28;20045;-65
2022/12/20 06:04:39;;;;;;;6.72;4.63;;;10.60;99.90;;;;;;5014783;28;20050;-65
2022/12/20 06:07:05;;;;;;;8.13;5.28;;;10.70;99.90;;;;;;5028426;28;20040;-65
2022/12/20 06:09:33;;;;;;;7.32;5.13;;;10.70;99.90;;;;;;5007012;28;20495;-66
2022/12/20 06:12:00;;;;;;;10.63;5.20;;;10.80;99.90;;;;;;5037280;28;20479;-66
2022/12/20 06:14:25;;;;;;;7.10;4.85;;;10.80;99.90;;;;;;5051315;28;20037;-66
2022/12/20 06:16:52;;;;;;;7.95;4.65;;;10.80;99.90;;;;;;5022435;28;20080;-65
2022/12/20 06:19:17;;;;;;;7.55;5.20;;;10.80;99.90;;;;;;5013804;28;20052;-65
2022/12/20 06:21:43;;;;;;;10.63;4.68;;;10.90;99.90;;;;;;5025661;28;20038;-65
2022/12/20 06:24:09;;;;;;;8.05;5.18;;;10.90;99.90;;;;;;5018310;28;20041;-65
2022/12/20 06:26:35;;;;;;;9.70;5.40;;;10.90;99.90;;;;;;5025042;28;20033;-65
2022/12/20 06:29:06;;;;;;;8.93;5.43;;;10.90;99.90;;;;;;5031860;28;20104;-65
2022/12/20 06:31:32;;;;;;;7.88;4.70;;;10.80;99.90;;;;;;5013574;28;20515;-67
2022/12/20 06:33:58;;;;;;;8.45;5.22;;;10.80;99.90;;;;;;5022048;28;20048;-65
2022/12/20 06:36:24;;;;;;;9.57;5.45;;;10.70;99.90;;;;;;5031569;28;20042;-65
2022/12/20 06:38:49;;;;;;;8.95;5.22;;;10.70;99.90;;;;;;5031267;28;20037;-65
2022/12/20 06:41:15;;;;;;;8.75;6.22;;;10.70;99.90;;;;;;5029122;28;20129;-66
2022/12/20 06:43:41;;;;;;;8.88;4.95;;;10.70;99.90;;;;;;5018070;28;20065;-66
2022/12/20 06:46:06;;;;;;;9.80;5.97;;;10.70;99.90;;;;;;5029228;28;20381;-65
2022/12/20 06:48:32;;;;;;;7.72;5.95;;;10.70;99.90;;;;;;5017405;28;20041;-66
2022/12/20 06:50:58;;;;;;;11.40;6.40;;;10.80;99.90;;;;;;5030250;28;20049;-66
2022/12/20 06:53:23;;;;;;;11.13;6.22;;;10.80;99.90;;;;;;5030700;28;20129;-65
2022/12/20 06:55:50;;;;;;;8.93;5.22;;;10.70;99.90;;;;;;5030855;28;20506;-65
2022/12/20 06:58:16;;;;;;;10.18;5.60;;;10.70;99.90;;;;;;5009988;28;20133;-66
2022/12/20 07:00:42;;;;;;;10.82;5.38;;;10.70;99.90;;;;;;5018050;28;20438;-65
2022/12/20 07:03:07;;;;;;;12.13;5.93;;;10.60;99.90;;;;;;5028792;28;20045;-65
2022/12/20 07:05:33;;;;;;;10.48;6.68;;;10.60;99.90;;;;;;5031571;28;20049;-65
2022/12/20 07:07:59;;;;;;;8.52;5.70;;;10.60;99.90;;;;;;5027437;28;20073;-65
2022/12/20 07:10:25;;;;;;;10.13;6.38;;;10.60;99.90;;;;;;5030318;28;20121;-65
2022/12/20 07:12:51;;;;;;;9.90;6.07;;;10.60;99.90;;;;;;5030978;28;20121;-65
2022/12/20 07:15:17;;;;;;;13.20;6.60;;;10.50;99.90;;;;;;5028608;28;20048;-65
2022/12/20 07:17:43;;;;;;;9.25;6.53;;;10.50;99.90;;;;;;5016467;28;20396;-65
2022/12/20 07:20:09;;;;;;;10.02;6.55;;;10.50;99.90;;;;;;5038987;28;20487;-64
2022/12/20 07:22:35;;;;;;;10.05;6.38;;;10.50;99.90;;;;;;5051068;28;20111;-64
2022/12/20 07:25:00;;;;;;;11.00;6.40;;;10.50;99.90;;;;;;5040349;28;20041;-64
2022/12/20 07:27:26;;;;;;;9.60;6.45;;;10.50;99.90;;;;;;5034648;28;20491;-65
2022/12/20 07:29:51;;;;;;;11.77;7.10;;;10.50;99.90;;;;;;5035073;28;20029;-64
2022/12/20 07:32:17;;;;;;;10.48;7.30;;;10.50;99.90;;;;;;5024607;28;20492;-64
2022/12/20 07:34:42;;;;;;;13.57;7.32;;;10.50;99.90;;;;;;5035821;28;20038;-64
2022/12/20 07:37:08;;;;;;;12.60;7.22;;;10.50;99.90;;;;;;5023083;28;20051;-65
2022/12/20 07:39:34;;;;;;;10.60;7.07;;;10.50;99.90;;;;;;5035083;28;20068;-64
2022/12/20 07:41:59;;;;;;;10.13;6.72;;;10.40;99.90;;;;;;5030093;28;20087;-64
2022/12/20 07:44:25;;;;;;;11.30;6.70;;;10.50;99.90;;;;;;5032150;28;20116;-64
2022/12/20 07:46:50;;;;;;;10.13;6.30;;;10.50;99.90;;;;;;5034734;28;20049;-65
2022/12/20 07:49:16;;;;;;;9.38;6.03;;;10.50;99.90;;;;;;5034822;28;20479;-64
2022/12/20 07:51:47;;;;;;;10.00;6.75;;;10.50;99.90;;;;;;5011192;28;20045;-64
2022/12/20 07:54:35;;;;;;;9.63;5.88;;;10.50;99.90;;;;;;5033994;28;20081;-66
2022/12/20 07:57:09;;;;;;;9.82;6.18;;;10.60;99.90;;;;;;5031924;28;20041;-66
2022/12/20 07:59:43;;;;;;;8.38;6.55;;;10.50;99.90;;;;;;5040811;28;20033;-64
2022/12/20 08:02:14;;;;;;;9.00;5.72;;;10.50;99.90;;;;;;5034108;28;20025;-66
2022/12/20 08:04:40;;;;;;;7.90;5.85;;;10.70;99.90;;;;;;5010585;28;20045;-64
2022/12/20 08:07:07;;;;;;;7.82;5.50;;;10.70;99.90;;;;;;5031849;28;20045;-64
2022/12/20 08:09:37;;;;;;;10.80;5.93;;;10.70;99.90;;;;;;5034511;28;20051;-64
2022/12/20 08:12:02;;;;;;;11.68;5.95;;;10.60;99.90;;;;;;5011564;28;20064;-64
2022/12/20 08:14:28;;;;;;;7.72;5.93;;;10.80;99.90;;;;;;5029592;28;20030;-64
2022/12/20 08:16:54;;;;;;;7.95;5.32;;;10.80;99.90;;;;;;5034165;28;20480;-64
2022/12/20 08:19:19;;;;;;;9.43;5.80;;;10.80;99.90;;;;;;5017283;28;20079;-65
2022/12/20 08:21:45;;;;;;;8.20;5.15;;;10.80;99.90;;;;;;5022748;28;20471;-64
2022/12/20 08:24:11;;;;;;;7.05;4.72;;;10.80;99.90;;;;;;5035663;28;20128;-64
2022/12/20 08:26:40;;;;;;;8.52;5.00;;;10.80;99.90;;;;;;5029942;28;20037;-64
2022/12/20 08:29:07;;;;;;;11.57;5.75;;;10.70;99.90;;;;;;5021853;28;20468;-65
2022/12/20 08:31:37;;;;;;;10.88;6.00;;;10.70;99.90;;;;;;5038562;28;20025;-64
2022/12/20 08:34:03;;;;;;;8.15;5.45;;;10.80;99.90;;;;;;5053892;28;20037;-64
2022/12/20 08:36:28;;;;;;;11.90;6.00;;;10.80;99.90;;;;;;5038653;28;20075;-64
2022/12/20 08:38:54;;;;;;;8.73;5.43;;;10.70;99.90;;;;;;5026745;28;20094;-65
2022/12/20 08:41:19;;;;;;;8.07;5.55;;;10.70;99.90;;;;;;5019520;28;20041;-65
2022/12/20 08:43:45;;;;;;;8.18;5.53;;;10.60;99.90;;;;;;5017427;28;20038;-67
2022/12/20 08:46:11;;;;;;;8.65;5.78;;;10.60;99.90;;;;;;5024535;28;20048;-64
2022/12/20 08:48:37;;;;;;;8.73;5.20;;;10.70;99.90;;;;;;5038051;28;20045;-64
2022/12/20 08:51:05;;;;;;;9.70;5.28;;;10.70;99.90;;;;;;5032945;28;20038;-66
2022/12/20 08:53:32;;;;;;;7.55;5.43;;;10.70;99.90;;;;;;5018784;28;20045;-65
2022/12/20 08:56:09;;;;;;;8.32;5.32;;;10.70;99.90;;;;;;5029032;28;20037;-65
2022/12/20 08:58:35;;;;;;;8.23;5.43;;;10.80;99.90;;;;;;5032090;28;20045;-65
2022/12/20 09:01:03;;;;;;;8.00;5.40;;;10.80;99.90;;;;;;5023275;28;20050;-64
2022/12/20 09:03:30;;;;;;;9.68;5.28;;;10.80;99.90;;;;;;5022686;28;20045;-65
2022/12/20 09:05:57;;;;;;;8.93;5.47;;;10.80;99.90;;;;;;5033349;28;20069;-65
2022/12/20 09:08:22;;;;;;;10.20;5.45;;;10.80;99.90;;;;;;5028670;28;20265;-65
2022/12/20 09:10:48;;;;;;;9.32;5.63;;;10.80;99.90;;;;;;5015166;28;20488;-65
2022/12/20 09:13:14;;;;;;;8.77;5.38;;;10.80;99.90;;;;;;5031787;28;20048;-66
2022/12/20 09:15:41;;;;;;;9.88;5.50;;;10.80;99.90;;;;;;5031463;28;20067;-65
2022/12/20 09:18:06;;;;;;;8.55;5.80;;;10.80;99.90;;;;;;5019788;28;20132;-65
2022/12/20 09:20:32;;;;;;;7.80;4.82;;;10.80;99.90;;;;;;5014821;28;20112;-65
2022/12/20 09:22:59;;;;;;;8.95;5.93;;;10.80;99.90;;;;;;5032664;28;20402;-65
2022/12/20 09:25:26;;;;;;;10.20;5.25;;;10.70;99.90;;;;;;5032709;28;20042;-66
2022/12/20 09:27:55;;;;;;;9.23;5.80;;;10.70;99.90;;;;;;5029803;28;20060;-65
2022/12/20 09:30:21;;;;;;;8.30;5.55;;;10.70;99.90;;;;;;5016180;28;20041;-65
2022/12/20 09:32:47;;;;;;;11.13;5.60;;;10.80;99.90;;;;;;5040751;28;20377;-65
2022/12/20 09:35:12;;;;;;;7.97;5.63;;;10.80;99.90;;;;;;5018687;28;20046;-64
2022/12/20 09:37:38;;;;;;;9.65;5.95;;;10.80;99.90;;;;;;5013423;28;20369;-65
2022/12/20 09:40:04;;;;;;;7.82;5.80;;;10.80;99.90;;;;;;5007654;28;20064;-65
2022/12/20 09:42:31;;;;;;;8.35;5.68;;;10.80;99.90;;;;;;5038925;28;20041;-65
2022/12/20 09:45:07;;;;;;;8.88;5.75;;;10.90;99.90;;;;;;5031346;28;20029;-65
2022/12/20 09:47:35;;;;;;;8.68;5.57;;;10.80;99.90;;;;;;5023647;28;20033;-65
2022/12/20 09:50:02;;;;;;;7.55;5.32;;;10.80;99.90;;;;;;5036940;28;20037;-65
2022/12/20 09:52:52;;;;;;;8.80;5.30;;;10.80;99.90;;;;;;5023077;28;20381;-65
2022/12/20 09:55:29;;;;;;;7.43;5.68;;;10.80;99.90;;;;;;5030997;28;20108;-65
2022/12/20 09:57:58;;;;;;;7.75;5.10;;;10.80;99.90;;;;;;5032638;28;20034;-65
2022/12/20 10:00:24;;;;;;;7.70;5.38;;;10.80;99.90;;;;;;5008581;28;20037;-65
2022/12/20 10:02:50;;;;;;;7.70;5.22;;;10.80;99.90;;;;;;5030508;28;20112;-65
2022/12/20 10:05:21;;;;;;;9.45;5.85;;;10.80;99.90;;;;;;5032205;28;20472;-65
2022/12/20 10:07:58;;;;;;;;;;;10.70;99.90;;;;;;5029970;28;20037;-65
2022/12/20 10:10:23;;;;;;;8.23;5.43;;;10.70;99.90;;;;;;5031484;28;20403;-66
2022/12/20 10:13:38;;;;;;;7.50;5.40;;;10.60;99.90;;;;;;5031717;28;20539;-66
2022/12/20 10:16:31;;;;;;;9.20;5.30;;;10.60;99.90;;;;;;4987820;28;20128;-66
2022/12/20 10:19:05;;;;;;;7.97;5.35;;;10.60;99.90;;;;;;5019007;28;20212;-66
2022/12/20 10:21:45;;;;;;;8.73;5.70;;;10.60;99.90;;;;;;5028999;28;20069;-65
2022/12/20 10:24:18;;;;;;;8.60;4.95;;;10.60;99.90;;;;;;5015544;28;20077;-66
2022/12/20 10:26:48;;;;;;;8.27;4.93;;;10.60;99.90;;;;;;5013804;28;20044;-65
2022/12/20 10:29:13;;;;;;;8.30;5.75;;;10.60;99.90;;;;;;5030431;28;20041;-65
2022/12/20 10:31:39;;;;;;;7.05;5.03;;;10.60;99.90;;;;;;5031935;28;20045;-65
2022/12/20 10:34:06;;;;;;;9.63;5.43;;;10.60;99.90;;;;;;5018041;28;20029;-65
2022/12/20 10:36:34;;;;;;;8.95;4.68;;;10.60;99.90;;;;;;5024841;28;20095;-65
2022/12/20 10:39:02;;;;;;;8.93;5.35;;;10.60;99.90;;;;;;5031640;28;20056;-65
2022/12/20 10:41:47;;;;;;;9.55;5.25;;;10.60;99.90;;;;;;5016209;28;20045;-65
2022/12/20 10:44:27;;;;;;;9.85;6.18;;;10.60;99.90;;;;;;5031296;28;20106;-65
2022/12/20 10:46:58;;;;;;;9.00;4.78;;;10.60;99.90;;;;;;5035468;28;20049;-65
2022/12/20 10:49:27;;;;;;;9.48;4.82;;;10.70;99.90;;;;;;5027487;28;20106;-65
2022/12/20 10:52:02;;;;;;;10.32;5.82;;;10.70;99.90;;;;;;5023578;28;20500;-65
2022/12/20 10:54:33;;;;;;;10.07;4.90;;;10.70;99.90;;;;;;5028162;28;20037;-65
2022/12/20 10:57:01;;;;;;;11.68;5.57;;;10.70;99.90;;;;;;5051386;28;20037;-65
2022/12/20 10:59:36;;;;;;;8.80;5.38;;;10.70;99.90;;;;;;5024263;28;20631;-64
2022/12/20 11:02:20;;;;;;;8.07;5.13;;;10.70;99.90;;;;;;5021681;28;20508;-65
2022/12/20 11:04:57;;;;;;;8.23;5.20;;;10.80;99.90;;;;;;5031263;28;20045;-64
2022/12/20 11:07:29;;;;;;;9.02;5.78;;;10.80;99.90;;;;;;5007105;28;20063;-65
2022/12/20 11:09:59;;;;;;;8.20;5.60;;;10.80;99.90;;;;;;5012805;28;20524;-64
2022/12/20 11:12:24;;;;;;;8.15;4.85;;;10.90;99.90;;;;;;5019920;28;20463;-64
2022/12/20 11:15:19;;;;;;;7.55;5.43;;;10.80;99.90;;;;;;5017653;28;20068;-65
2022/12/20 11:17:50;;;;;;;7.32;5.07;;;10.80;99.90;;;;;;5030149;28;20092;-64
2022/12/20 11:20:39;;;;;;;8.40;5.45;;;10.80;99.90;;;;;;5021477;28;20056;-64
2022/12/20 11:23:22;;;;;;;6.50;4.95;;;10.80;99.90;;;;;;5028851;28;20096;-67
2022/12/20 11:26:15;;;;;;;7.82;5.32;;;10.80;99.90;;;;;;5008891;28;20037;-64
2022/12/20 11:29:11;;;;;;;9.70;4.63;;;10.80;99.90;;;;;;5006863;28;20037;-63
2022/12/20 11:32:03;;;;;;;10.48;5.55;;;10.80;99.90;;;;;;5027299;28;20090;-64
2022/12/20 11:34:34;;;;;;;8.13;5.35;;;10.80;99.90;;;;;;5009323;28;20049;-65
2022/12/20 11:37:09;;;;;;;8.15;4.78;;;10.80;99.90;;;;;;5030432;28;20473;-64
2022/12/20 11:39:56;;;;;;;11.00;5.88;;;10.80;99.90;;;;;;5028089;28;20044;-65
2022/12/20 11:42:27;;;;;;;8.60;5.32;;;10.80;99.90;;;;;;5016712;28;20030;-64
2022/12/20 11:45:24;;;;;;;8.77;5.63;;;10.80;99.90;;;;;;5021024;28;20427;-65
2022/12/20 11:48:28;;;;;;;7.82;5.20;;;10.80;99.90;;;;;;5031040;28;20041;-64
2022/12/20 11:51:31;;;;;;;8.55;5.63;;;10.70;99.90;;;;;;5021344;28;20124;-64
2022/12/20 11:54:05;;;;;;;10.23;5.53;;;10.80;99.90;;;;;;5002973;28;20124;-69
2022/12/20 11:56:35;;;;;;;8.38;5.38;;;10.70;99.90;;;;;;5030332;28;20053;-64
2022/12/20 11:59:13;;;;;;;12.33;6.07;;;10.70;99.90;;;;;;5019174;28;20041;-64
2022/12/20 12:02:16;;;;;;;11.38;6.35;;;10.70;99.90;;;;;;5029796;28;20029;-64
2022/12/20 12:05:02;;;;;;;8.55;6.20;;;10.70;99.90;;;;;;5030949;28;20072;-68
2022/12/20 12:07:31;;;;;;;9.20;6.20;;;10.70;99.90;;;;;;5021932;28;20120;-64
2022/12/20 12:10:17;;;;;;;10.63;6.35;;;10.70;99.90;;;;;;5030230;28;20048;-64
2022/12/20 12:12:45;;;;;;;10.63;6.72;;;10.70;99.90;;;;;;5031230;28;20050;-68
2022/12/20 12:15:20;;;;;;;10.07;6.32;;;10.60;99.90;;;;;;5025376;28;20059;-64
2022/12/20 12:18:10;;;;;;;9.77;6.47;;;10.60;99.90;;;;;;5014776;28;20140;-65
2022/12/20 12:21:00;;;;;;;10.85;6.40;;;10.60;99.90;;;;;;5034111;28;20447;-64
2022/12/20 12:23:54;;;;;;;10.23;6.07;;;10.70;99.90;;;;;;5019922;28;20037;-65
2022/12/20 12:26:25;;;;;;;9.80;5.90;;;10.70;99.90;;;;;;5019331;28;20045;-64
2022/12/20 12:28:55;;;;;;;;;;;10.70;99.90;;;;;;5023008;28;20037;-64
2022/12/20 12:31:48;;;;;;;10.52;6.82;;;10.70;99.90;;;;;;5021008;28;19991;-64
2022/12/20 12:34:32;;;;;;;11.23;6.28;;;10.70;99.90;;;;;;5032065;28;20396;-64
2022/12/20 12:37:26;;;;;;;9.55;6.15;;;10.70;99.90;;;;;;5022311;28;20041;-64
2022/12/20 12:40:15;;;;;;;10.57;7.35;;;10.70;99.90;;;;;;5016001;28;20443;-64
2022/12/20 12:43:14;;;;;;;9.88;6.10;;;10.70;99.90;;;;;;5008630;28;20052;-65
2022/12/20 12:45:43;;;;;;;10.18;5.57;;;10.70;99.90;;;;;;5013987;28;20148;-64
2022/12/20 12:48:38;;;;;;;12.45;6.63;;;10.70;99.90;;;;;;5021654;28;20041;-65
2022/12/20 12:51:05;;;;;;;10.43;6.15;;;10.80;99.90;;;;;;5025754;28;20132;-64
2022/12/20 12:53:33;;;;;;;11.10;7.05;;;10.80;99.90;;;;;;5033620;28;20484;-64
2022/12/20 12:56:24;;;;;;;8.27;6.55;;;10.80;99.90;;;;;;5017866;28;20050;-64
2022/12/20 12:59:05;;;;;;;12.55;7.05;;;10.80;99.90;;;;;;5018453;28;20034;-64
2022/12/20 13:01:49;;;;;;;10.27;5.97;;;10.70;99.90;;;;;;5013200;28;20452;-64
2022/12/20 13:04:20;;;;;;;9.95;7.25;;;10.70;99.90;;;;;;5011920;28;20076;-66
2022/12/20 13:06:46;;;;;;;13.70;7.18;;;10.70;99.90;;;;;;5028081;28;20071;-64
2022/12/20 13:09:36;;;;;;;10.07;6.25;;;10.70;99.90;;;;;;5051976;28;20192;-64
2022/12/20 13:12:37;;;;;;;12.50;7.70;;;10.70;99.90;;;;;;5024778;28;20038;-64